Time;durP1;ratioP1;P1;durP2;ratioP2;P2;SDS_P1;SDS_P2;PMS_P1;PMS_P2;Temp;Humidity;BMP_temperature;BMP_pressure;BME280_temperature;BME280_humidity;BME280_pressure;Samples;Min_cycle;Max_cycle;Signal;HPM_P1;HPM_P2
2022/08/07 00:02:07;;;;;;;2.57;1.90;;;19.90;55.20;;;;;;5053586;28;20450;-56
2022/08/07 00:04:34;;;;;;;3.00;2.00;;;19.90;56.10;;;;;;5053324;28;20541;-56
2022/08/07 00:07:02;;;;;;;3.10;1.90;;;19.80;55.20;;;;;;5053476;28;20887;-56
2022/08/07 00:09:29;;;;;;;3.03;1.90;;;19.80;55.30;;;;;;5053012;28;20483;-56
2022/08/07 00:11:56;;;;;;;1.67;1.57;;;19.60;55.70;;;;;;5053515;28;20472;-56
2022/08/07 00:14:25;;;;;;;3.00;1.90;;;19.50;55.50;;;;;;5053381;28;20507;-56
2022/08/07 00:16:52;;;;;;;5.93;2.17;;;19.50;56.10;;;;;;5053299;28;20507;-57
2022/08/07 00:19:21;;;;;;;2.30;2.10;;;19.50;56.50;;;;;;5052866;28;20567;-57
2022/08/07 00:21:48;;;;;;;2.90;2.20;;;19.20;56.80;;;;;;5053182;28;20821;-57
2022/08/07 00:24:15;;;;;;;1.83;1.63;;;19.10;56.90;;;;;;5053353;28;20455;-56
2022/08/07 00:26:42;;;;;;;1.73;1.63;;;19.00;56.60;;;;;;5053063;28;20536;-56
2022/08/07 00:29:09;;;;;;;3.23;2.10;;;19.00;57.00;;;;;;5053162;28;20488;-56
2022/08/07 00:31:36;;;;;;;2.10;1.80;;;18.90;57.00;;;;;;5053103;28;20484;-56
2022/08/07 00:34:04;;;;;;;4.00;2.03;;;18.90;58.20;;;;;;5053263;28;20599;-56
2022/08/07 00:36:32;;;;;;;8.00;2.27;;;19.00;59.20;;;;;;5052788;28;20943;-56
2022/08/07 00:39:00;;;;;;;2.50;2.20;;;19.10;56.60;;;;;;5052602;28;20536;-56
2022/08/07 00:41:31;;;;;;;2.77;2.00;;;19.20;56.90;;;;;;5053056;28;20492;-56
2022/08/07 00:43:58;;;;;;;3.13;2.83;;;19.10;56.90;;;;;;5053404;28;20430;-56
2022/08/07 00:46:26;;;;;;;2.07;1.93;;;19.20;58.10;;;;;;5052478;28;20485;-56
2022/08/07 00:48:53;;;;;;;2.20;2.00;;;19.20;58.10;;;;;;5052974;28;20445;-56
2022/08/07 00:51:20;;;;;;;5.77;2.10;;;19.20;57.20;;;;;;5053131;28;20537;-56
2022/08/07 00:53:49;;;;;;;3.03;2.10;;;19.20;56.90;;;;;;5052864;28;20452;-56
2022/08/07 00:56:16;;;;;;;2.80;2.17;;;19.20;58.30;;;;;;5052909;28;20455;-56
2022/08/07 00:58:43;;;;;;;2.33;2.10;;;19.20;58.00;;;;;;5052912;28;20485;-57
2022/08/07 01:01:11;;;;;;;2.70;2.40;;;19.20;57.60;;;;;;5052854;28;20557;-56
2022/08/07 01:03:38;;;;;;;3.20;2.50;;;19.30;58.10;;;;;;5052522;28;20450;-56
2022/08/07 01:06:06;;;;;;;3.40;2.47;;;19.30;58.50;;;;;;5052684;28;20481;-56
2022/08/07 01:08:33;;;;;;;2.80;2.23;;;19.40;59.00;;;;;;5052489;28;20442;-56
2022/08/07 01:11:01;;;;;;;5.43;2.47;;;19.30;58.40;;;;;;5052749;28;20907;-56
2022/08/07 01:13:29;;;;;;;3.80;2.07;;;19.30;58.00;;;;;;5052881;28;20563;-56
2022/08/07 01:15:58;;;;;;;3.00;2.60;;;19.50;57.80;;;;;;5052392;28;20989;-56
2022/08/07 01:18:28;;;;;;;4.87;2.33;;;19.50;57.50;;;;;;5052179;28;20484;-57
2022/08/07 01:21:10;;;;;;;3.30;2.20;;;19.30;57.40;;;;;;5052467;28;20512;-56
2022/08/07 01:23:39;;;;;;;2.00;1.90;;;19.30;57.80;;;;;;5052825;28;20436;-56
2022/08/07 01:26:07;;;;;;;2.10;1.73;;;19.40;57.20;;;;;;5052369;28;20445;-57
2022/08/07 01:28:34;;;;;;;2.33;2.13;;;19.50;58.00;;;;;;5052324;28;20481;-56
2022/08/07 01:31:02;;;;;;;2.33;2.13;;;19.50;58.20;;;;;;5052750;28;20560;-56
2022/08/07 01:33:30;;;;;;;2.40;2.20;;;19.50;57.10;;;;;;5056425;28;20445;-56
2022/08/07 01:35:59;;;;;;;3.53;2.63;;;19.40;57.10;;;;;;5056306;28;20555;-57
2022/08/07 01:38:28;;;;;;;3.17;2.13;;;19.20;57.60;;;;;;5056024;28;20477;-56
2022/08/07 01:40:57;;;;;;;2.20;2.00;;;19.20;57.60;;;;;;5056175;28;21062;-56
2022/08/07 01:43:25;;;;;;;2.83;2.10;;;19.30;57.80;;;;;;5056095;28;20533;-56
2022/08/07 01:45:54;;;;;;;4.30;1.93;;;19.20;58.50;;;;;;5055575;28;20512;-56
2022/08/07 01:48:22;;;;;;;2.80;2.37;;;19.30;57.80;;;;;;5055800;28;20817;-56
2022/08/07 01:50:53;;;;;;;3.10;1.93;;;19.30;57.90;;;;;;5055920;28;20557;-56
2022/08/07 01:53:23;;;;;;;2.40;2.07;;;19.40;57.90;;;;;;5056290;28;20519;-56
2022/08/07 01:55:56;;;;;;;1.90;1.80;;;19.30;58.40;;;;;;5055938;28;20933;-56
2022/08/07 01:58:28;;;;;;;2.33;2.13;;;19.20;58.50;;;;;;5055627;28;20973;-56
2022/08/07 02:01:01;;;;;;;2.00;1.80;;;19.20;58.50;;;;;;5055686;28;20457;-56
2022/08/07 02:03:32;;;;;;;2.97;1.80;;;19.20;58.50;;;;;;5055771;28;20524;-56
2022/08/07 02:06:03;;;;;;;2.20;2.00;;;19.10;58.50;;;;;;5055385;28;20437;-56
2022/08/07 02:08:36;;;;;;;3.10;1.97;;;18.60;59.20;;;;;;5055561;28;20429;-56
2022/08/07 02:11:07;;;;;;;2.20;2.00;;;18.50;59.50;;;;;;5055895;28;20477;-56
2022/08/07 02:13:36;;;;;;;4.27;2.30;;;18.40;59.80;;;;;;5055517;28;20910;-56
2022/08/07 02:16:05;;;;;;;5.30;2.13;;;18.40;61.50;;;;;;5055630;28;20472;-56
2022/08/07 02:18:36;;;;;;;2.97;1.83;;;18.70;59.60;;;;;;5055387;28;20441;-56
2022/08/07 02:21:05;;;;;;;3.20;2.07;;;18.90;59.70;;;;;;5055068;28;20475;-56
2022/08/07 02:23:36;;;;;;;3.00;2.30;;;18.90;59.70;;;;;;5055220;28;20452;-56
2022/08/07 02:26:06;;;;;;;2.27;2.07;;;18.90;60.10;;;;;;5055293;28;20429;-56
2022/08/07 02:28:36;;;;;;;2.37;2.10;;;18.80;60.20;;;;;;5055797;28;20457;-56
2022/08/07 02:31:06;;;;;;;2.37;2.17;;;18.80;59.80;;;;;;5055183;28;20553;-56
2022/08/07 02:33:34;;;;;;;2.40;2.20;;;18.80;60.40;;;;;;5054950;28;20429;-56
2022/08/07 02:36:03;;;;;;;2.93;2.20;;;18.80;60.00;;;;;;5054932;28;20937;-56
2022/08/07 02:38:35;;;;;;;3.80;2.00;;;18.90;60.10;;;;;;5054735;28;20488;-56
2022/08/07 02:41:03;;;;;;;2.20;2.00;;;18.90;60.00;;;;;;5054797;28;20487;-56
2022/08/07 02:43:35;;;;;;;2.40;2.20;;;18.80;60.00;;;;;;5054753;28;20433;-56
2022/08/07 02:46:06;;;;;;;3.63;1.80;;;18.80;60.40;;;;;;5054838;28;20515;-56
2022/08/07 02:48:33;;;;;;;2.93;2.50;;;18.70;60.00;;;;;;5054750;28;20974;-56
2022/08/07 02:51:07;;;;;;;2.73;2.53;;;18.60;61.70;;;;;;5054601;28;20469;-56
2022/08/07 02:53:38;;;;;;;3.10;1.83;;;18.70;60.00;;;;;;5054864;28;20830;-56
2022/08/07 02:56:07;;;;;;;2.87;2.40;;;18.80;60.60;;;;;;5054946;28;20513;-56
2022/08/07 02:58:37;;;;;;;6.17;2.53;;;18.70;61.70;;;;;;5054477;28;20496;-57
2022/08/07 03:01:05;;;;;;;2.63;2.20;;;18.60;60.90;;;;;;5054223;28;21045;-56
2022/08/07 03:03:34;;;;;;;2.50;2.30;;;18.60;60.80;;;;;;5054507;28;20499;-56
2022/08/07 03:06:02;;;;;;;2.03;1.90;;;18.50;61.20;;;;;;5054680;28;20524;-56
2022/08/07 03:08:30;;;;;;;2.80;1.80;;;18.50;61.60;;;;;;5054325;28;20449;-56
2022/08/07 03:10:59;;;;;;;2.07;1.87;;;18.60;61.60;;;;;;5054595;28;20500;-58
2022/08/07 03:13:26;;;;;;;2.10;1.90;;;;;;;;;;5054263;28;20540;-56
2022/08/07 03:15:56;;;;;;;3.37;2.10;;;18.00;62.30;;;;;;5054201;28;20436;-56
2022/08/07 03:18:23;;;;;;;2.80;2.57;;;17.70;63.10;;;;;;5054306;28;20483;-56
2022/08/07 03:20:50;;;;;;;2.43;2.23;;;17.50;64.00;;;;;;5053940;28;20485;-56
2022/08/07 03:23:19;;;;;;;1.93;1.80;;;17.50;64.80;;;;;;5053878;28;20453;-56
2022/08/07 03:25:47;;;;;;;2.20;2.00;;;17.60;65.40;;;;;;5053888;28;20976;-56
2022/08/07 03:28:18;;;;;;;4.23;2.07;;;17.50;65.40;;;;;;5053946;28;20484;-57
2022/08/07 03:30:46;;;;;;;3.40;2.00;;;17.70;65.90;;;;;;5053985;28;20515;-56
2022/08/07 03:33:16;;;;;;;2.40;1.90;;;17.80;66.30;;;;;;5054127;28;20796;-56
2022/08/07 03:35:45;;;;;;;2.50;2.27;;;17.80;66.10;;;;;;5053992;28;20445;-56
2022/08/07 03:38:13;;;;;;;1.90;1.80;;;17.80;66.50;;;;;;5054106;28;20524;-56
2022/08/07 03:40:41;;;;;;;1.93;1.83;;;17.90;67.20;;;;;;5053320;28;20575;-56
2022/08/07 03:43:08;;;;;;;2.97;2.30;;;17.80;66.50;;;;;;5053891;28;20445;-56
2022/08/07 03:45:36;;;;;;;4.10;2.00;;;17.60;67.20;;;;;;5053418;28;20457;-56
2022/08/07 03:48:03;;;;;;;2.87;2.10;;;17.40;68.00;;;;;;5053712;28;20528;-56
2022/08/07 03:50:35;;;;;;;2.83;2.10;;;17.40;68.40;;;;;;5053658;28;20820;-56
2022/08/07 03:53:03;;;;;;;3.20;2.10;;;17.60;68.40;;;;;;5053836;28;20430;-56
2022/08/07 03:55:32;;;;;;;3.17;2.00;;;17.70;67.60;;;;;;5053058;28;20544;-56
2022/08/07 03:57:59;;;;;;;2.60;2.27;;;17.50;68.00;;;;;;5053272;28;20483;-56
2022/08/07 04:00:28;;;;;;;3.30;2.23;;;17.40;68.40;;;;;;5053140;28;20992;-56
2022/08/07 04:02:55;;;;;;;3.07;2.20;;;17.30;68.50;;;;;;5053675;28;20532;-56
2022/08/07 04:05:22;;;;;;;5.10;2.10;;;17.40;69.50;;;;;;5053198;28;20934;-56
2022/08/07 04:07:51;;;;;;;2.53;2.23;;;17.50;69.80;;;;;;5053447;28;20459;-56
2022/08/07 04:10:19;;;;;;;2.40;2.20;;;17.60;71.20;;;;;;5053391;28;20571;-56
2022/08/07 04:12:48;;;;;;;2.50;2.30;;;17.60;71.10;;;;;;5053336;28;20544;-56
2022/08/07 04:15:21;;;;;;;2.37;2.17;;;17.60;71.40;;;;;;5053078;28;20444;-56
2022/08/07 04:17:48;;;;;;;2.50;2.30;;;17.60;71.70;;;;;;5053361;28;20452;-56
2022/08/07 04:20:18;;;;;;;2.37;2.17;;;17.60;72.50;;;;;;5052833;28;20568;-56
2022/08/07 04:22:48;;;;;;;3.87;2.63;;;17.70;72.40;;;;;;5052957;28;20543;-57
2022/08/07 04:25:18;;;;;;;6.97;2.10;;;17.80;73.10;;;;;;5053065;28;20933;-56
2022/08/07 04:27:45;;;;;;;2.07;1.97;;;17.90;72.70;;;;;;5053083;28;20429;-56
2022/08/07 04:30:13;;;;;;;2.63;2.43;;;17.90;72.40;;;;;;5053125;28;20557;-57
2022/08/07 04:32:40;;;;;;;4.53;2.40;;;17.90;73.10;;;;;;5053154;28;20457;-56
2022/08/07 04:35:08;;;;;;;2.60;2.40;;;17.90;73.70;;;;;;5052944;28;20540;-56
2022/08/07 04:37:37;;;;;;;2.47;2.27;;;17.90;73.90;;;;;;5052780;28;20540;-56
2022/08/07 04:40:06;;;;;;;2.40;2.20;;;17.90;74.30;;;;;;5052647;28;20523;-56
2022/08/07 04:42:35;;;;;;;2.27;2.00;;;17.90;74.50;;;;;;5053229;28;20503;-56
2022/08/07 04:45:03;;;;;;;2.40;2.07;;;18.00;74.00;;;;;;5052766;28;20445;-56
2022/08/07 04:47:41;;;;;;;3.77;2.70;;;18.00;74.20;;;;;;5052860;28;20524;-56
2022/08/07 04:50:14;;;;;;;3.17;2.30;;;18.00;74.20;;;;;;5052736;28;20556;-56
2022/08/07 04:52:46;;;;;;;2.40;2.17;;;17.90;75.00;;;;;;5053083;28;20433;-56
2022/08/07 04:55:22;;;;;;;3.30;2.20;;;17.90;75.20;;;;;;5053149;28;20504;-56
2022/08/07 04:57:59;;;;;;;3.60;2.37;;;18.10;75.10;;;;;;5052926;28;20463;-56
2022/08/07 05:00:37;;;;;;;2.97;2.67;;;18.00;75.80;;;;;;5052739;28;20892;-56
2022/08/07 05:03:15;;;;;;;2.60;2.40;;;18.20;75.50;;;;;;5052732;28;20410;-56
2022/08/07 05:05:51;;;;;;;2.60;2.33;;;18.20;76.40;;;;;;5052616;28;20434;-56
2022/08/07 05:08:22;;;;;;;3.00;2.63;;;18.10;76.00;;;;;;5056457;28;20429;-56
2022/08/07 05:10:54;;;;;;;4.80;3.17;;;18.10;77.10;;;;;;5056934;28;20476;-56
2022/08/07 05:13:28;;;;;;;2.30;2.10;;;18.00;77.30;;;;;;5056384;28;20524;-56
2022/08/07 05:15:58;;;;;;;4.27;3.20;;;18.00;79.20;;;;;;5056631;28;20425;-56
2022/08/07 05:18:29;;;;;;;2.90;2.50;;;18.20;78.80;;;;;;5056548;28;20477;-56
2022/08/07 05:20:59;;;;;;;3.30;3.00;;;18.30;79.00;;;;;;5056570;28;20491;-56
2022/08/07 05:23:32;;;;;;;5.43;2.90;;;18.30;80.20;;;;;;5056423;28;21020;-56
2022/08/07 05:26:01;;;;;;;3.87;3.47;;;18.10;79.30;;;;;;5056452;28;20528;-57
2022/08/07 05:28:31;;;;;;;3.13;2.90;;;18.40;81.30;;;;;;5056086;28;20959;-56
2022/08/07 05:30:59;;;;;;;3.33;3.03;;;18.60;79.90;;;;;;5056108;28;20968;-56
2022/08/07 05:33:28;;;;;;;3.73;3.43;;;18.60;81.20;;;;;;5056345;28;20449;-57
2022/08/07 05:35:56;;;;;;;3.63;3.33;;;18.70;81.60;;;;;;5056104;28;20484;-56
2022/08/07 05:38:23;;;;;;;3.50;3.20;;;18.70;81.70;;;;;;5056325;28;20445;-56
2022/08/07 05:40:52;;;;;;;3.43;3.10;;;18.80;82.20;;;;;;5056230;28;20890;-56
2022/08/07 05:43:20;;;;;;;4.27;3.87;;;18.90;83.50;;;;;;5056032;28;20449;-56
2022/08/07 05:45:50;;;;;;;3.67;3.33;;;18.90;83.50;;;;;;5055877;28;20560;-56
2022/08/07 05:48:19;;;;;;;4.30;3.50;;;18.90;84.20;;;;;;5055727;28;21032;-56
2022/08/07 05:50:47;;;;;;;4.40;3.50;;;18.80;85.30;;;;;;5055635;28;20500;-56
2022/08/07 05:53:14;;;;;;;7.40;4.63;;;18.90;85.20;;;;;;5055683;28;20536;-56
2022/08/07 05:55:42;;;;;;;4.97;4.30;;;19.00;86.80;;;;;;5055712;28;20456;-56
2022/08/07 05:58:11;;;;;;;3.40;3.20;;;18.90;86.30;;;;;;5055523;28;20434;-56
2022/08/07 06:00:39;;;;;;;4.30;4.00;;;19.20;86.10;;;;;;5055643;28;20489;-56
2022/08/07 06:03:10;;;;;;;4.70;3.60;;;19.20;86.70;;;;;;5055887;28;20536;-56
2022/08/07 06:05:37;;;;;;;3.50;3.20;;;19.20;86.60;;;;;;5055693;28;20548;-56
2022/08/07 06:08:05;;;;;;;4.37;3.60;;;19.20;87.40;;;;;;5055370;28;20960;-56
2022/08/07 06:10:33;;;;;;;4.23;3.93;;;19.50;86.20;;;;;;5055690;28;20534;-56
2022/08/07 06:13:01;;;;;;;4.00;3.63;;;19.40;87.80;;;;;;5055553;28;20449;-56
2022/08/07 06:15:30;;;;;;;3.77;3.47;;;19.30;87.10;;;;;;5055211;28;20429;-56
2022/08/07 06:17:58;;;;;;;4.43;4.03;;;19.30;87.20;;;;;;5054682;28;20971;-56
2022/08/07 06:20:27;;;;;;;4.23;3.93;;;19.20;87.50;;;;;;5055092;28;20531;-56
2022/08/07 06:22:55;;;;;;;4.10;3.80;;;19.20;87.90;;;;;;5055373;28;20453;-56
2022/08/07 06:25:23;;;;;;;5.30;3.97;;;19.30;89.30;;;;;;5055275;28;20476;-56
2022/08/07 06:27:50;;;;;;;3.60;3.30;;;19.30;88.90;;;;;;5055131;28;20963;-56
2022/08/07 06:30:17;;;;;;;3.77;3.47;;;19.50;89.30;;;;;;5055195;28;20549;-56
2022/08/07 06:32:44;;;;;;;5.63;3.40;;;19.50;89.60;;;;;;5055225;28;20449;-56
2022/08/07 06:35:11;;;;;;;5.73;4.20;;;19.60;90.10;;;;;;5055223;28;20879;-56
2022/08/07 06:37:40;;;;;;;3.27;2.97;;;19.70;90.00;;;;;;5054843;28;20445;-56
2022/08/07 06:40:09;;;;;;;4.40;4.10;;;19.80;90.00;;;;;;5054921;28;20489;-56
2022/08/07 06:42:37;;;;;;;3.67;3.37;;;19.80;89.90;;;;;;5055135;28;20449;-56
2022/08/07 06:45:09;;;;;;;4.10;3.80;;;19.90;90.70;;;;;;5054497;28;20459;-56
2022/08/07 06:47:37;;;;;;;4.70;3.50;;;19.80;90.70;;;;;;5054581;28;20429;-56
2022/08/07 06:50:05;;;;;;;5.13;4.17;;;19.90;90.80;;;;;;5054609;28;20468;-56
2022/08/07 06:52:36;;;;;;;5.00;4.57;;;20.10;91.00;;;;;;5054941;28;20477;-56
2022/08/07 06:55:10;;;;;;;4.20;3.90;;;20.10;90.80;;;;;;5054678;28;20421;-56
2022/08/07 06:57:38;;;;;;;4.80;4.40;;;20.30;91.10;;;;;;5054418;28;20924;-56
2022/08/07 07:00:07;;;;;;;4.50;4.10;;;20.20;91.80;;;;;;5054389;28;20954;-56
2022/08/07 07:02:36;;;;;;;4.63;4.23;;;20.20;92.50;;;;;;5054766;28;20484;-56
2022/08/07 07:05:03;;;;;;;3.60;3.30;;;20.50;91.30;;;;;;5054626;28;20453;-56
2022/08/07 07:07:31;;;;;;;5.90;3.80;;;20.50;91.90;;;;;;5054478;28;20536;-56
2022/08/07 07:09:58;;;;;;;4.40;4.00;;;20.60;91.70;;;;;;5054281;28;21033;-56
2022/08/07 07:12:37;;;;;;;4.70;4.30;;;20.60;91.90;;;;;;5054158;28;20449;-56
2022/08/07 07:15:09;;;;;;;4.30;3.90;;;20.60;91.80;;;;;;5054468;28;20560;-56
2022/08/07 07:17:41;;;;;;;5.10;4.60;;;20.60;91.30;;;;;;5053933;28;20433;-56
2022/08/07 07:20:12;;;;;;;4.90;4.50;;;20.70;91.70;;;;;;5053850;28;20465;-56
2022/08/07 07:22:41;;;;;;;3.93;3.60;;;20.70;92.40;;;;;;5054077;28;21008;-56
2022/08/07 07:25:10;;;;;;;4.90;4.10;;;20.90;91.90;;;;;;5054106;28;20476;-56
2022/08/07 07:27:44;;;;;;;4.30;4.00;;;20.70;99.90;;;;;;5054094;28;20476;-56
2022/08/07 07:30:13;;;;;;;3.63;3.33;;;20.90;93.00;;;;;;5053350;28;20552;-56
2022/08/07 07:32:42;;;;;;;3.70;3.40;;;21.20;92.10;;;;;;5054033;28;20551;-56
2022/08/07 07:35:12;;;;;;;3.17;2.93;;;21.30;92.10;;;;;;5053679;28;21003;-56
2022/08/07 07:37:42;;;;;;;4.00;3.70;;;21.60;90.90;;;;;;5053773;28;20456;-56
2022/08/07 07:40:15;;;;;;;5.30;3.63;;;21.80;90.20;;;;;;5054080;28;20564;-56
2022/08/07 07:42:45;;;;;;;3.60;3.30;;;21.80;90.60;;;;;;5053908;28;20429;-56
2022/08/07 07:45:14;;;;;;;5.93;3.63;;;21.70;90.70;;;;;;5053804;28;20471;-56
2022/08/07 07:47:43;;;;;;;5.00;3.50;;;21.70;90.70;;;;;;5053481;28;20465;-56
2022/08/07 07:50:13;;;;;;;4.00;3.57;;;21.80;90.50;;;;;;5053340;28;20469;-56
2022/08/07 07:52:43;;;;;;;5.07;3.00;;;21.90;90.70;;;;;;5053388;28;20445;-56
2022/08/07 07:55:12;;;;;;;3.43;3.13;;;22.10;89.50;;;;;;5053345;28;20516;-56
2022/08/07 07:57:40;;;;;;;2.70;2.50;;;22.80;88.90;;;;;;5053395;28;20540;-56
2022/08/07 08:00:10;;;;;;;2.67;2.47;;;;;;;;;;5053150;28;20671;-57
2022/08/07 08:02:40;;;;;;;2.87;2.67;;;24.80;79.00;;;;;;5053462;28;20449;-57
2022/08/07 08:05:09;;;;;;;5.80;3.00;;;25.50;77.40;;;;;;5053362;28;20434;-56
2022/08/07 08:07:38;;;;;;;2.70;2.50;;;25.50;76.10;;;;;;5053223;28;20449;-56
2022/08/07 08:10:08;;;;;;;3.83;2.53;;;25.90;74.10;;;;;;5053477;28;20563;-56
2022/08/07 08:12:36;;;;;;;2.40;2.20;;;26.50;72.80;;;;;;5053411;28;20445;-56
2022/08/07 08:15:04;;;;;;;2.80;2.33;;;26.80;71.00;;;;;;5053180;28;20898;-56
2022/08/07 08:17:35;;;;;;;3.80;2.53;;;26.90;70.30;;;;;;5053261;28;20577;-57
2022/08/07 08:20:07;;;;;;;3.03;2.40;;;26.80;66.10;;;;;;5053169;28;20465;-57
2022/08/07 08:28:12;;;;;;;2.20;2.00;;;27.70;65.90;;;;;;5052970;28;20421;-56
2022/08/07 08:30:41;;;;;;;2.50;2.27;;;27.40;61.60;;;;;;5053203;28;20449;-56
2022/08/07 08:33:14;;;;;;;1.93;1.83;;;27.60;61.50;;;;;;5052668;28;21003;-56
2022/08/07 08:35:44;;;;;;;2.10;1.90;;;27.90;60.70;;;;;;5053007;28;20466;-56
2022/08/07 08:38:14;;;;;;;2.50;1.90;;;27.50;59.70;;;;;;5052860;28;20520;-56
2022/08/07 08:40:48;;;;;;;4.17;2.00;;;27.30;59.80;;;;;;5054545;28;20485;-56
2022/08/07 08:43:20;;;;;;;2.10;1.90;;;27.80;58.60;;;;;;5057147;28;20429;-56
2022/08/07 08:45:53;;;;;;;2.13;1.97;;;27.80;57.50;;;;;;5056587;28;20485;-56
2022/08/07 08:48:32;;;;;;;2.37;2.00;;;27.90;57.70;;;;;;5056757;28;20437;-56
2022/08/07 08:51:05;;;;;;;2.93;2.70;;;28.30;57.20;;;;;;5056771;28;20957;-56
2022/08/07 08:53:38;;;;;;;3.50;2.00;;;28.50;58.00;;;;;;5057188;28;20429;-56
2022/08/07 08:56:10;;;;;;;4.00;1.90;;;28.00;56.40;;;;;;5056676;28;20429;-56
2022/08/07 08:58:46;;;;;;;3.00;1.70;;;28.10;57.10;;;;;;5056641;28;20430;-56
2022/08/07 09:01:19;;;;;;;2.33;2.13;;;28.30;56.10;;;;;;5056651;28;20488;-56
2022/08/07 09:03:58;;;;;;;1.90;1.70;;;28.60;55.30;;;;;;5056744;28;20521;-56
2022/08/07 09:06:40;;;;;;;2.03;1.90;;;29.10;54.70;;;;;;5056906;28;20444;-56
2022/08/07 09:09:20;;;;;;;1.90;1.80;;;28.90;54.10;;;;;;5056438;28;20520;-55
2022/08/07 09:11:59;;;;;;;2.10;1.60;;;28.50;54.00;;;;;;5056737;28;20472;-56
2022/08/07 09:14:36;;;;;;;2.00;1.80;;;28.90;54.20;;;;;;5056731;28;20828;-56
2022/08/07 09:17:17;;;;;;;2.07;1.60;;;28.60;53.20;;;;;;5056703;28;20440;-56
2022/08/07 09:19:57;;;;;;;3.47;1.90;;;29.00;52.00;;;;;;5056120;28;20434;-56
2022/08/07 09:22:47;;;;;;;2.50;1.80;;;29.20;52.70;;;;;;5056479;28;20465;-56
2022/08/07 09:25:21;;;;;;;1.90;1.40;;;29.10;52.80;;;;;;5056153;28;20516;-56
2022/08/07 09:27:57;;;;;;;2.00;1.70;;;29.00;52.30;;;;;;5056493;28;20851;-56
2022/08/07 09:30:28;;;;;;;3.00;1.60;;;29.20;51.80;;;;;;5056486;28;20471;-56
2022/08/07 09:33:06;;;;;;;1.87;1.70;;;29.80;52.60;;;;;;5056198;28;20784;-56
2022/08/07 09:35:45;;;;;;;2.37;2.17;;;30.20;51.00;;;;;;5056295;28;20520;-56
2022/08/07 09:38:23;;;;;;;3.83;1.60;;;30.10;50.40;;;;;;5056002;28;20433;-55
2022/08/07 09:41:06;;;;;;;2.37;1.60;;;;;;;;;;5055942;28;20481;-55
2022/08/07 09:43:51;;;;;;;4.70;1.80;;;30.20;49.40;;;;;;5053272;28;20485;-55
2022/08/07 09:46:29;;;;;;;2.37;1.70;;;30.20;50.50;;;;;;5055657;28;20473;-56
2022/08/07 09:49:15;;;;;;;2.37;1.50;;;30.60;49.10;;;;;;5056028;28;20430;-55
2022/08/07 09:52:00;;;;;;;1.50;1.40;;;30.70;49.10;;;;;;5055441;28;20523;-56
2022/08/07 09:54:35;;;;;;;1.60;1.30;;;30.60;48.80;;;;;;5055995;28;20561;-57
2022/08/07 09:57:34;;;;;;;1.77;1.43;;;30.20;48.00;;;;;;5055892;28;20420;-58
2022/08/07 10:00:10;;;;;;;1.90;1.70;;;30.60;48.20;;;;;;5055493;28;20473;-57
2022/08/07 10:02:59;;;;;;;2.20;1.40;;;30.50;48.40;;;;;;5055449;28;20999;-58
2022/08/07 10:05:51;;;;;;;1.67;1.30;;;30.90;47.20;;;;;;5055778;28;20460;-58
2022/08/07 10:08:54;;;;;;;1.40;1.27;;;30.80;46.60;;;;;;5055447;28;20436;-58
2022/08/07 10:11:37;;;;;;;1.70;1.60;;;30.90;46.50;;;;;;5055154;28;21038;-58
2022/08/07 10:14:12;;;;;;;1.40;1.30;;;31.50;46.60;;;;;;5055887;28;20529;-58
2022/08/07 10:17:05;;;;;;;1.50;1.40;;;31.30;46.00;;;;;;5055488;28;20436;-58
2022/08/07 10:19:46;;;;;;;1.90;1.37;;;30.90;45.50;;;;;;5052425;28;20968;-58
2022/08/07 10:22:34;;;;;;;1.70;1.60;;;31.30;45.20;;;;;;5055114;28;20469;-56
2022/08/07 10:25:35;;;;;;;1.87;1.47;;;30.80;45.10;;;;;;5055090;28;20513;-58
2022/08/07 10:28:22;;;;;;;4.93;1.50;;;31.30;45.00;;;;;;5055434;28;20500;-55
2022/08/07 10:31:02;;;;;;;1.83;1.60;;;31.90;44.20;;;;;;5055376;28;20465;-58
2022/08/07 10:33:53;;;;;;;2.00;1.40;;;31.20;44.80;;;;;;5055474;28;20426;-58
2022/08/07 10:36:41;;;;;;;1.60;1.50;;;30.70;44.10;;;;;;5055486;28;20612;-58
2022/08/07 10:39:26;;;;;;;1.50;1.40;;;31.10;44.60;;;;;;5054830;28;20505;-56
2022/08/07 10:42:04;;;;;;;1.77;1.50;;;31.00;44.10;;;;;;5055166;28;20572;-57
2022/08/07 10:44:39;;;;;;;1.50;1.40;;;31.50;45.10;;;;;;5055060;28;20522;-58
2022/08/07 10:47:18;;;;;;;1.93;1.30;;;32.00;43.70;;;;;;5054566;28;20559;-57
2022/08/07 10:49:54;;;;;;;1.60;1.40;;;31.60;44.90;;;;;;5054666;28;20426;-57
2022/08/07 10:52:32;;;;;;;1.80;1.30;;;31.80;44.30;;;;;;5055005;28;20595;-57
2022/08/07 10:55:10;;;;;;;1.83;1.53;;;30.90;45.10;;;;;;5054764;28;20914;-57
2022/08/07 10:57:48;;;;;;;1.93;1.40;;;31.10;44.30;;;;;;5054865;28;20433;-57
2022/08/07 11:00:17;;;;;;;2.30;1.73;;;31.50;44.00;;;;;;5054728;28;20472;-57
2022/08/07 11:02:56;;;;;;;1.80;1.70;;;31.20;44.70;;;;;;5054604;28;20488;-57
2022/08/07 11:05:33;;;;;;;1.73;1.40;;;30.90;45.40;;;;;;5054316;28;20450;-58
2022/08/07 11:08:13;;;;;;;1.83;1.60;;;30.80;44.90;;;;;;5054365;28;20429;-57
2022/08/07 11:10:45;;;;;;;2.17;1.40;;;30.50;45.30;;;;;;5054043;28;20560;-54
2022/08/07 11:13:23;;;;;;;2.50;1.47;;;31.00;44.80;;;;;;5054090;28;20503;-59
2022/08/07 11:15:54;;;;;;;1.83;1.70;;;31.30;44.80;;;;;;5054557;28;20787;-63
2022/08/07 11:18:28;;;;;;;1.77;1.60;;;31.60;45.70;;;;;;5054052;28;20466;-61
2022/08/07 11:21:02;;;;;;;2.00;1.60;;;31.20;43.90;;;;;;5053873;28;20480;-59
2022/08/07 11:23:39;;;;;;;1.50;1.40;;;31.30;45.10;;;;;;5054153;28;20470;-60
2022/08/07 11:26:14;;;;;;;1.97;1.70;;;31.00;44.60;;;;;;5054213;28;20520;-59
2022/08/07 11:28:48;;;;;;;1.70;1.43;;;31.40;45.10;;;;;;5053932;28;20428;-64
2022/08/07 11:31:23;;;;;;;1.40;1.30;;;31.50;44.00;;;;;;5054095;28;20819;-61
2022/08/07 11:33:56;;;;;;;2.63;1.53;;;31.90;45.00;;;;;;5054115;28;20429;-62
2022/08/07 11:36:38;;;;;;;1.40;1.30;;;32.00;44.50;;;;;;5053875;28;20414;-63
2022/08/07 11:39:15;;;;;;;1.70;1.40;;;31.90;44.10;;;;;;5053822;28;20440;-61
2022/08/07 11:41:53;;;;;;;2.70;1.57;;;31.70;44.30;;;;;;5045608;28;20508;-58
2022/08/07 11:44:32;;;;;;;1.60;1.50;;;32.10;45.10;;;;;;5045521;28;20441;-60
2022/08/07 11:47:07;;;;;;;2.27;1.60;;;32.00;44.30;;;;;;5053637;28;20567;-62
2022/08/07 11:50:03;;;;;;;1.87;1.50;;;31.80;43.40;;;;;;5053363;28;20440;-60
2022/08/07 11:52:49;;;;;;;2.60;1.57;;;31.30;44.10;;;;;;5052425;28;20441;-62
2022/08/07 11:55:29;;;;;;;1.53;1.40;;;31.90;44.10;;;;;;5048203;28;20447;-59
2022/08/07 11:58:14;;;;;;;1.70;1.57;;;31.90;44.90;;;;;;5050650;28;20445;-60
2022/08/07 12:00:55;;;;;;;1.70;1.37;;;31.80;43.90;;;;;;5052188;28;20941;-57
2022/08/07 12:03:43;;;;;;;1.57;1.47;;;31.30;43.30;;;;;;5052389;28;20484;-57
2022/08/07 12:06:33;;;;;;;1.37;1.27;;;31.20;44.00;;;;;;5033073;28;20458;-61
2022/08/07 12:09:07;;;;;;;1.37;1.27;;;31.30;43.60;;;;;;5044196;28;20492;-62
2022/08/07 12:11:43;;;;;;;1.83;1.50;;;31.70;43.70;;;;;;5052155;28;21044;-62
2022/08/07 12:14:17;;;;;;;1.63;1.43;;;30.80;44.10;;;;;;5032515;28;20430;-59
2022/08/07 12:16:50;;;;;;;2.80;1.30;;;31.30;43.60;;;;;;5031750;28;20559;-65
2022/08/07 12:19:26;;;;;;;1.73;1.40;;;32.00;43.90;;;;;;5032278;28;20492;-66
2022/08/07 12:22:02;;;;;;;2.37;1.40;;;32.10;43.60;;;;;;5032514;28;20489;-62
2022/08/07 12:24:37;;;;;;;2.87;1.80;;;31.50;42.80;;;;;;5032082;28;20414;-56
2022/08/07 12:27:10;;;;;;;4.17;2.10;;;31.30;43.80;;;;;;5046582;28;20529;-62
2022/08/07 12:29:44;;;;;;;2.10;1.50;;;30.50;44.60;;;;;;5051818;28;20769;-63
2022/08/07 12:32:20;;;;;;;1.63;1.53;;;31.20;43.90;;;;;;5051923;28;20425;-61
2022/08/07 12:34:51;;;;;;;1.50;1.40;;;31.20;43.20;;;;;;5052168;28;20442;-57
2022/08/07 12:37:19;;;;;;;4.37;1.67;;;31.20;44.50;;;;;;5052234;28;20441;-63
2022/08/07 12:39:49;;;;;;;2.50;1.77;;;31.60;44.30;;;;;;5051674;28;20551;-66
2022/08/07 12:42:20;;;;;;;1.50;1.40;;;31.00;43.80;;;;;;5051718;28;20999;-64
2022/08/07 12:44:50;;;;;;;1.63;1.40;;;30.90;44.50;;;;;;5052468;28;20528;-61
2022/08/07 12:47:30;;;;;;;1.40;1.30;;;30.60;44.60;;;;;;5052275;28;20484;-55
2022/08/07 12:50:05;;;;;;;2.03;1.50;;;30.80;44.70;;;;;;5051874;28;20469;-64
2022/08/07 12:52:41;;;;;;;1.80;1.50;;;31.20;43.30;;;;;;5051769;28;20445;-57
2022/08/07 12:55:22;;;;;;;5.10;1.60;;;31.30;43.90;;;;;;5052193;28;20433;-57
2022/08/07 12:57:51;;;;;;;2.53;1.80;;;31.60;44.20;;;;;;5051930;28;20864;-59
2022/08/07 13:00:18;;;;;;;3.80;1.40;;;30.90;42.70;;;;;;5051842;28;20462;-55
2022/08/07 13:03:12;;;;;;;2.50;1.70;;;31.20;43.50;;;;;;5051999;28;20482;-55
2022/08/07 13:05:54;;;;;;;1.60;1.50;;;31.10;42.80;;;;;;5052354;28;20452;-54
2022/08/07 13:08:33;;;;;;;1.40;1.30;;;31.10;44.10;;;;;;5051884;28;20541;-57
2022/08/07 13:11:09;;;;;;;1.90;1.53;;;30.90;42.60;;;;;;5051671;28;20517;-59
2022/08/07 13:13:54;;;;;;;3.50;1.60;;;30.70;43.10;;;;;;5052270;28;20868;-55
2022/08/07 13:16:29;;;;;;;1.60;1.50;;;30.90;43.80;;;;;;5052144;28;20465;-61
2022/08/07 13:19:09;;;;;;;2.50;1.87;;;31.00;43.60;;;;;;5051399;28;20439;-60
2022/08/07 13:21:43;;;;;;;3.20;1.70;;;31.40;43.40;;;;;;5051958;28;20468;-59